Time;durP1;ratioP1;P1;durP2;ratioP2;P2;SDS_P1;SDS_P2;PMS_P1;PMS_P2;Temp;Humidity;BMP_temperature;BMP_pressure;BME280_temperature;BME280_humidity;BME280_pressure;Samples;Min_cycle;Max_cycle;Signal;HPM_P1;HPM_P2
2022/10/25 00:00:27;;;;;;;2.17;1.70;;;;;;;32.20;25.99;98068.97;5009810;28;20034;-81
2022/10/25 00:02:53;;;;;;;2.33;2.13;;;;;;;32.40;25.45;98066.22;5001527;28;20480;-81
2022/10/25 00:05:19;;;;;;;2.80;2.08;;;;;;;32.48;25.86;98058.09;4994661;28;20045;-81
2022/10/25 00:07:45;;;;;;;2.58;2.00;;;;;;;31.99;26.34;98061.63;5002529;28;20058;-81
2022/10/25 00:10:11;;;;;;;1.90;1.60;;;;;;;31.64;26.65;98061.47;5008244;28;20161;-81
2022/10/25 00:12:42;;;;;;;2.15;1.90;;;;;;;31.65;26.53;98076.44;5005298;28;20040;-81
2022/10/25 00:15:12;;;;;;;2.63;2.42;;;;;;;31.76;26.60;98074.59;5010903;28;20084;-81
2022/10/25 00:17:38;;;;;;;2.72;2.47;;;;;;;32.06;26.03;98064.09;5012571;28;20117;-81
2022/10/25 00:20:05;;;;;;;3.78;2.67;;;;;;;32.39;25.84;98055.34;4999939;28;20034;-80
2022/10/25 00:22:31;;;;;;;2.47;2.20;;;;;;;32.34;25.80;98042.63;4999988;28;20038;-80
2022/10/25 00:24:57;;;;;;;2.53;2.28;;;;;;;31.76;26.33;98060.41;4999327;28;20038;-80
2022/10/25 00:27:23;;;;;;;3.05;2.38;;;;;;;31.30;27.34;98059.16;5001869;28;20034;-80
2022/10/25 00:29:50;;;;;;;2.25;2.05;;;;;;;31.71;26.71;98055.41;4997950;28;20039;-80
2022/10/25 00:32:16;;;;;;;2.75;2.10;;;;;;;31.94;26.12;98054.53;5003362;28;20057;-81
2022/10/25 00:34:43;;;;;;;2.63;2.28;;;;;;;32.16;26.16;98050.56;4992816;28;20492;-81
2022/10/25 00:37:09;;;;;;;2.63;2.20;;;;;;;32.38;25.75;98057.41;4995669;28;20030;-81
2022/10/25 00:39:38;;;;;;;2.28;2.08;;;;;;;32.29;26.10;98056.72;5006027;28;20026;-81
2022/10/25 00:42:04;;;;;;;2.30;2.10;;;;;;;32.50;25.49;98053.50;5004437;28;20088;-81
2022/10/25 00:44:39;;;;;;;3.50;2.35;;;;;;;32.33;25.93;98049.56;5001160;28;20500;-81
2022/10/25 00:47:20;;;;;;;3.03;2.10;;;;;;;32.43;25.59;98056.72;4998966;28;20034;-81
2022/10/25 00:50:01;;;;;;;2.83;2.22;;;;;;;32.65;25.24;98054.25;5006916;28;20038;-81
2022/10/25 00:52:31;;;;;;;2.33;2.13;;;;;;;32.88;25.06;98048.91;4999035;28;20042;-81
2022/10/25 00:54:58;;;;;;;2.47;2.28;;;;;;;33.01;24.67;98064.38;5009560;28;20032;-80
2022/10/25 00:57:31;;;;;;;2.75;1.90;;;;;;;32.94;24.88;98059.06;5004048;28;20038;-81
2022/10/25 00:59:58;;;;;;;2.15;1.95;;;;;;;32.92;24.85;98061.63;5003750;28;20037;-81
2022/10/25 01:02:24;;;;;;;3.03;2.28;;;;;;;32.98;24.87;98071.03;5004188;28;20030;-80
2022/10/25 01:04:51;;;;;;;3.00;1.90;;;;;;;33.02;24.93;98057.44;5000980;28;20034;-80
2022/10/25 01:07:17;;;;;;;2.22;2.00;;;;;;;32.96;25.08;98061.41;5009200;28;20026;-81
2022/10/25 01:09:44;;;;;;;2.70;2.50;;;;;;;32.25;25.66;98056.94;5007161;28;20030;-81
2022/10/25 01:12:10;;;;;;;2.30;2.10;;;;;;;32.20;26.05;98051.16;5008061;28;20030;-80
2022/10/25 01:14:40;;;;;;;2.53;2.33;;;;;;;32.21;26.33;98047.03;5000530;28;20057;-80
2022/10/25 01:17:12;;;;;;;3.00;2.70;;;;;;;32.51;25.34;98054.28;5002521;28;20083;-80
2022/10/25 01:20:15;;;;;;;2.22;1.98;;;;;;;32.68;25.25;98053.25;5010451;28;20511;-80
2022/10/25 01:23:23;;;;;;;2.10;1.70;;;;;;;32.83;25.40;98041.06;5018385;28;20045;-80
2022/10/25 01:26:08;;;;;;;2.25;2.05;;;;;;;32.46;25.77;98046.41;4993807;28;20030;-80
2022/10/25 01:29:21;;;;;;;2.00;1.85;;;;;;;32.35;25.52;98049.84;5001052;28;20042;-80
2022/10/25 01:31:52;;;;;;;3.05;2.42;;;;;;;32.45;25.22;98059.84;4993204;28;20377;-80
2022/10/25 01:34:34;;;;;;;;;;;;;;;32.50;24.83;98064.09;5005571;28;20079;-80
2022/10/25 01:37:29;;;;;;;2.58;2.30;;;;;;;32.03;26.18;98074.38;5043308;28;19948;-80
2022/10/25 01:40:27;;;;;;;5.07;2.40;;;;;;;32.03;26.38;98068.69;5008326;28;20030;-80
2022/10/25 01:42:56;;;;;;;2.45;2.10;;;;;;;32.06;26.16;98061.25;5007794;28;20026;-80
2022/10/25 01:45:35;;;;;;;3.22;2.17;;;;;;;32.05;25.89;98066.13;4998754;28;20442;-80
2022/10/25 01:48:22;;;;;;;2.70;2.13;;;;;;;32.21;25.94;98069.78;5011399;28;20088;-80
2022/10/25 01:50:48;;;;;;;4.65;2.55;;;;;;;32.30;25.50;98078.97;5012539;28;20040;-80
2022/10/25 01:53:15;;;;;;;3.63;2.40;;;;;;;32.52;25.49;98079.38;5013182;28;20034;-79
2022/10/25 01:55:56;;;;;;;3.20;2.42;;;;;;;32.68;24.90;98075.22;5006042;28;20121;-79
2022/10/25 01:58:34;;;;;;;2.10;1.90;;;;;;;32.24;25.51;98068.78;5013044;28;20036;-81
2022/10/25 02:01:10;;;;;;;4.80;2.42;;;;;;;32.26;25.39;98072.69;5012208;28;20061;-80
2022/10/25 02:03:42;;;;;;;4.07;2.90;;;;;;;31.77;25.47;98066.84;5012903;28;20480;-80
2022/10/25 02:06:11;;;;;;;2.30;2.00;;;;;;;31.45;25.82;98064.94;5012744;28;20030;-80
2022/10/25 02:08:52;;;;;;;2.70;2.25;;;;;;;31.70;25.74;98070.84;5023665;28;20030;-79
2022/10/25 02:11:30;;;;;;;3.28;2.15;;;;;;;31.94;25.40;98080.09;5004567;28;20034;-79
2022/10/25 02:14:04;;;;;;;3.13;2.17;;;;;;;31.90;25.40;98076.66;4998401;28;20054;-79
2022/10/25 02:16:45;;;;;;;3.88;2.55;;;;;;;31.83;25.25;98071.38;5010871;28;20026;-79
2022/10/25 02:19:16;;;;;;;1.98;1.70;;;;;;;31.53;25.76;98074.66;5007129;28;20045;-79
2022/10/25 02:21:45;;;;;;;1.73;1.63;;;;;;;31.06;26.24;98078.25;5012234;28;20057;-79
2022/10/25 02:24:18;;;;;;;2.22;2.03;;;;;;;31.23;26.23;98074.50;5001693;28;20033;-79
2022/10/25 02:26:48;;;;;;;2.45;2.00;;;;;;;31.40;26.14;98083.38;4999894;28;20037;-79
2022/10/25 02:29:16;;;;;;;1.75;1.65;;;;;;;31.63;25.41;98078.97;5000878;28;20041;-79
2022/10/25 02:31:43;;;;;;;2.10;1.92;;;;;;;31.80;25.19;98080.88;5013802;28;20428;-79
2022/10/25 02:34:09;;;;;;;1.70;1.60;;;;;;;31.97;24.87;98084.81;5010892;28;20066;-79
2022/10/25 02:36:35;;;;;;;2.17;1.75;;;;;;;32.08;24.41;98087.09;5014942;28;20045;-79
2022/10/25 02:39:03;;;;;;;2.13;1.90;;;;;;;31.53;25.42;98086.75;5012101;28;20509;-79
2022/10/25 02:41:29;;;;;;;1.63;1.52;;;;;;;31.43;25.62;98085.28;5010973;28;20109;-79
2022/10/25 02:43:55;;;;;;;1.52;1.42;;;;;;;31.69;25.47;98080.66;5012287;28;20087;-79
2022/10/25 02:46:22;;;;;;;2.13;1.73;;;;;;;31.98;24.76;98086.41;5010542;28;20030;-79
2022/10/25 02:48:49;;;;;;;1.48;1.38;;;;;;;32.20;24.75;98073.88;5014100;28;20045;-79
2022/10/25 02:51:17;;;;;;;1.73;1.63;;;;;;;32.32;24.65;98065.06;5015038;28;20030;-79
2022/10/25 02:53:43;;;;;;;2.83;2.00;;;;;;;32.24;24.52;98065.94;5015991;28;20088;-79
2022/10/25 02:56:11;;;;;;;1.98;1.77;;;;;;;32.15;24.55;98066.03;5015896;28;20510;-79
2022/10/25 02:58:41;;;;;;;1.58;1.48;;;;;;;32.11;24.48;98073.97;5012229;28;20037;-80
2022/10/25 03:01:07;;;;;;;1.63;1.52;;;;;;;32.02;25.02;98072.03;5010425;28;20042;-80
2022/10/25 03:03:33;;;;;;;1.58;1.48;;;;;;;31.87;24.94;98063.44;5012048;28;20030;-79
2022/10/25 03:06:00;;;;;;;1.67;1.45;;;;;;;31.90;24.86;98065.28;5012099;28;20068;-79
2022/10/25 03:08:27;;;;;;;2.85;1.65;;;;;;;31.57;25.34;98061.84;5011100;28;20392;-79
2022/10/25 03:10:54;;;;;;;2.00;1.55;;;;;;;31.65;25.38;98065.84;5030576;28;20407;-79
2022/10/25 03:13:20;;;;;;;1.60;1.50;;;;;;;31.92;24.86;98067.66;5009949;28;20041;-79
2022/10/25 03:15:47;;;;;;;1.77;1.50;;;;;;;32.04;24.87;98067.41;5013786;28;20076;-79
2022/10/25 03:18:14;;;;;;;1.83;1.50;;;;;;;32.20;24.53;98066.16;5013135;28;20388;-79
2022/10/25 03:20:42;;;;;;;1.80;1.45;;;;;;;32.25;24.49;98059.00;5008000;28;20104;-79
2022/10/25 03:23:08;;;;;;;2.28;1.90;;;;;;;32.28;24.14;98063.69;5012984;28;20399;-79
2022/10/25 03:25:34;;;;;;;2.53;1.95;;;;;;;32.13;24.34;98075.06;5013850;28;20069;-79
2022/10/25 03:28:00;;;;;;;2.20;2.00;;;;;;;31.97;24.76;98072.69;5008799;28;20034;-79
2022/10/25 03:30:28;;;;;;;2.60;2.40;;;;;;;31.95;24.99;98078.06;5014356;28;20069;-79
2022/10/25 03:32:55;;;;;;;2.28;1.98;;;;;;;32.05;24.81;98079.53;5005001;28;20117;-79
2022/10/25 03:35:22;;;;;;;1.65;1.55;;;;;;;32.21;24.84;98075.47;5012034;28;20065;-79
2022/10/25 03:37:49;;;;;;;1.83;1.73;;;;;;;32.36;24.65;98079.06;5011109;28;20479;-79
2022/10/25 03:40:15;;;;;;;1.88;1.75;;;;;;;32.42;24.30;98077.88;5012248;28;20034;-79
2022/10/25 03:42:41;;;;;;;2.72;1.80;;;;;;;32.39;24.17;98084.56;4998298;28;20392;-79
2022/10/25 03:45:08;;;;;;;2.72;2.25;;;;;;;32.37;24.15;98087.09;4995005;28;20030;-79
2022/10/25 03:47:34;;;;;;;2.00;1.80;;;;;;;32.32;24.12;98081.31;5013709;28;20053;-79
2022/10/25 03:50:00;;;;;;;1.90;1.70;;;;;;;32.36;24.07;98087.59;5013362;28;20065;-79
2022/10/25 03:52:26;;;;;;;2.10;1.70;;;;;;;32.38;24.13;98087.88;5011801;28;20033;-79
2022/10/25 03:54:53;;;;;;;1.50;1.40;;;;;;;32.29;24.22;98082.31;5004405;28;21950;-79
2022/10/25 03:57:19;;;;;;;1.52;1.42;;;;;;;32.16;24.17;98082.59;5001048;28;20033;-79
2022/10/25 03:59:45;;;;;;;1.73;1.60;;;;;;;32.27;24.08;98094.16;5003466;28;20100;-79
2022/10/25 04:02:12;;;;;;;1.63;1.52;;;;;;;32.37;23.85;98092.78;4997644;28;20035;-79
2022/10/25 04:04:38;;;;;;;1.88;1.50;;;;;;;32.16;24.61;98088.25;5012569;28;20062;-79
2022/10/25 04:07:05;;;;;;;2.28;1.65;;;;;;;32.05;24.09;98091.69;5009428;28;20112;-81
2022/10/25 04:09:31;;;;;;;1.85;1.70;;;;;;;31.94;24.38;98087.84;5005172;28;20442;-80
2022/10/25 04:11:57;;;;;;;1.48;1.38;;;;;;;31.92;24.35;98096.84;5004519;28;20478;-80
2022/10/25 04:14:23;;;;;;;1.55;1.45;;;;;;;31.85;24.48;98100.06;5008439;28;20408;-79
2022/10/25 04:16:50;;;;;;;2.35;1.90;;;;;;;31.78;24.91;98096.81;5005673;28;20068;-79
2022/10/25 04:19:16;;;;;;;1.98;1.58;;;;;;;31.99;24.75;98093.66;5004156;28;20266;-79
2022/10/25 04:21:42;;;;;;;1.52;1.42;;;;;;;32.14;24.22;98090.81;5010569;28;20038;-80
2022/10/25 04:24:08;;;;;;;2.95;1.50;;;;;;;32.01;24.29;98101.69;5012282;28;20376;-80
2022/10/25 04:26:35;;;;;;;2.00;1.80;;;;;;;31.85;24.61;98100.06;5009308;28;20116;-79
2022/10/25 04:29:02;;;;;;;1.50;1.40;;;;;;;31.92;24.46;98099.69;5006716;28;20037;-80
2022/10/25 04:31:28;;;;;;;2.00;1.90;;;;;;;31.97;24.76;98104.72;5005993;28;20025;-79
2022/10/25 04:33:56;;;;;;;2.25;2.00;;;;;;;31.97;24.92;98098.25;5006852;28;20033;-79
2022/10/25 04:36:22;;;;;;;1.85;1.65;;;;;;;32.03;24.85;98099.13;5005597;28;20042;-80
2022/10/25 04:38:50;;;;;;;1.90;1.65;;;;;;;32.07;24.66;98099.72;5006739;28;20025;-80
2022/10/25 04:41:16;;;;;;;2.10;1.83;;;;;;;31.92;24.73;98096.06;5010446;28;20499;-80
2022/10/25 04:43:43;;;;;;;1.98;1.85;;;;;;;31.30;25.14;98087.53;5012318;28;20427;-81
2022/10/25 04:46:09;;;;;;;3.13;2.13;;;;;;;30.51;26.61;98084.16;5010684;28;20484;-79
2022/10/25 04:48:40;;;;;;;2.03;1.83;;;;;;;30.61;26.55;98093.41;5001768;28;20381;-79
2022/10/25 04:51:08;;;;;;;1.80;1.70;;;;;;;31.16;25.74;98091.88;5011046;28;20045;-79
2022/10/25 04:53:34;;;;;;;1.50;1.40;;;;;;;31.64;25.23;98094.75;5005183;28;20071;-79
2022/10/25 04:56:03;;;;;;;1.52;1.42;;;;;;;31.96;24.73;98088.94;5012261;28;20446;-79
2022/10/25 04:58:29;;;;;;;2.25;1.67;;;;;;;32.18;24.38;98104.84;5013544;28;20033;-79
2022/10/25 05:01:00;;;;;;;1.70;1.60;;;;;;;32.17;24.70;98097.56;5013551;28;20044;-79
2022/10/25 05:03:27;;;;;;;1.73;1.63;;;;;;;31.62;25.03;98100.91;5006884;28;20038;-79
2022/10/25 05:05:53;;;;;;;2.15;1.95;;;;;;;31.14;25.33;98102.94;5013545;28;20112;-79
2022/10/25 05:08:19;;;;;;;1.55;1.45;;;;;;;30.89;26.16;98094.09;5013235;28;20027;-79
2022/10/25 05:10:53;;;;;;;1.63;1.52;;;;;;;31.09;25.92;98094.28;5013473;28;20092;-79
2022/10/25 05:13:19;;;;;;;1.73;1.58;;;;;;;31.34;25.57;98100.28;5012074;28;20022;-79
2022/10/25 05:15:56;;;;;;;1.77;1.67;;;;;;;31.59;25.09;98093.34;5013288;28;20103;-79
2022/10/25 05:18:23;;;;;;;2.22;2.00;;;;;;;31.80;24.49;98097.13;5012282;28;20029;-79
2022/10/25 05:20:54;;;;;;;1.75;1.58;;;;;;;31.91;24.47;98097.31;5007244;28;20129;-79
2022/10/25 05:23:21;;;;;;;;;;;;;;;31.87;23.94;98086.16;5013380;28;20464;-79
2022/10/25 05:25:47;;;;;;;2.03;1.48;;;;;;;31.99;23.67;98079.47;5012870;28;19963;-79
2022/10/25 05:28:13;;;;;;;3.55;1.73;;;;;;;31.22;25.04;98086.34;5013266;28;20121;-79
2022/10/25 05:30:41;;;;;;;1.70;1.60;;;;;;;30.87;25.57;98080.38;5013099;28;20032;-79
2022/10/25 05:33:07;;;;;;;1.90;1.80;;;;;;;30.17;26.86;98093.06;5013386;28;20049;-79
2022/10/25 05:35:34;;;;;;;1.50;1.40;;;;;;;30.47;25.93;98094.09;5010648;28;20038;-79
2022/10/25 05:38:18;;;;;;;1.83;1.63;;;;;;;30.77;25.87;98095.84;5008443;28;20534;-79
2022/10/25 05:40:52;;;;;;;1.45;1.35;;;;;;;30.94;25.54;98096.28;5013118;28;20034;-79
2022/10/25 05:43:18;;;;;;;1.70;1.60;;;;;;;31.05;25.39;98088.81;5012599;28;20041;-79
2022/10/25 05:45:44;;;;;;;1.38;1.27;;;;;;;31.19;24.82;98092.97;5012823;28;20034;-79
2022/10/25 05:48:11;;;;;;;3.40;1.42;;;;;;;31.23;24.80;98100.03;5012881;28;20041;-79
2022/10/25 05:50:37;;;;;;;1.65;1.50;;;;;;;31.25;25.02;98096.75;5012832;28;20034;-79
2022/10/25 05:53:03;;;;;;;1.20;1.10;;;;;;;31.41;24.56;98108.41;5006248;28;20023;-79
2022/10/25 05:55:29;;;;;;;1.42;1.33;;;;;;;31.38;24.18;98112.25;5012764;28;20037;-79
2022/10/25 05:57:55;;;;;;;0.98;0.98;;;;;;;31.14;24.76;98114.28;5012691;28;20105;-79
2022/10/25 06:00:22;;;;;;;1.35;1.25;;;;;;;31.17;24.69;98118.22;5016624;28;20475;-79
2022/10/25 06:02:48;;;;;;;2.13;1.65;;;;;;;31.27;24.92;98122.56;5016779;28;20053;-79
2022/10/25 06:05:14;;;;;;;1.15;1.00;;;;;;;31.29;24.67;98128.53;5016387;28;20391;-79
2022/10/25 06:07:40;;;;;;;1.30;1.20;;;;;;;31.34;24.85;98122.97;5017537;28;20030;-79
2022/10/25 06:10:06;;;;;;;1.45;1.25;;;;;;;31.37;24.59;98133.38;5009835;28;20030;-79
2022/10/25 06:12:33;;;;;;;0.85;0.85;;;;;;;31.47;24.62;98142.63;5016463;28;20057;-79
2022/10/25 06:14:59;;;;;;;1.17;1.08;;;;;;;31.51;24.61;98134.72;5016313;28;20465;-79
2022/10/25 06:17:25;;;;;;;1.27;1.10;;;;;;;31.73;24.10;98140.09;5016245;28;20037;-79
2022/10/25 06:19:51;;;;;;;1.20;1.05;;;;;;;31.83;24.53;98135.91;5002633;28;20033;-79
2022/10/25 06:22:17;;;;;;;0.88;0.80;;;;;;;31.98;24.58;98140.38;5012076;28;20045;-79
2022/10/25 06:24:43;;;;;;;0.75;0.75;;;;;;;32.02;24.43;98149.47;5016084;28;20026;-79
2022/10/25 06:27:09;;;;;;;0.82;0.80;;;;;;;31.80;24.28;98149.03;5015279;28;20041;-79
2022/10/25 06:29:35;;;;;;;0.68;0.68;;;;;;;31.69;25.26;98160.16;4996973;28;20085;-79
2022/10/25 06:32:02;;;;;;;0.80;0.80;;;;;;;31.65;25.29;98164.44;5028038;28;20039;-79
2022/10/25 06:34:28;;;;;;;1.20;0.95;;;;;;;31.96;24.88;98165.66;4996623;28;20034;-79
2022/10/25 06:36:54;;;;;;;1.20;0.73;;;;;;;32.28;25.07;98160.31;4996440;28;20038;-79
2022/10/25 06:39:20;;;;;;;1.85;0.90;;;;;;;32.51;25.09;98156.63;4996325;28;20384;-79
2022/10/25 06:41:47;;;;;;;3.55;1.30;;;;;;;32.67;24.56;98161.81;4996333;28;20555;-79
2022/10/25 06:44:13;;;;;;;1.98;1.13;;;;;;;32.75;24.75;98175.16;4998017;28;20031;-79
2022/10/25 06:46:40;;;;;;;1.30;1.20;;;;;;;32.87;24.48;98172.47;5014616;28;20034;-79
2022/10/25 06:49:06;;;;;;;1.60;1.50;;;;;;;32.83;24.04;98178.38;5015620;28;20550;-79
2022/10/25 06:51:33;;;;;;;1.25;1.15;;;;;;;32.82;23.80;98188.19;5015501;28;20071;-79
2022/10/25 06:54:06;;;;;;;2.33;1.13;;;;;;;32.79;24.01;98185.53;5015267;28;20399;-79
2022/10/25 06:56:33;;;;;;;1.30;1.20;;;;;;;32.72;24.00;98186.72;5015579;28;20113;-79
2022/10/25 06:58:59;;;;;;;2.75;1.17;;;;;;;32.74;24.34;98190.63;5015475;28;20081;-79
2022/10/25 07:01:25;;;;;;;1.10;1.00;;;;;;;32.84;24.01;98190.56;5022992;28;20053;-79
2022/10/25 07:03:53;;;;;;;1.35;1.25;;;;;;;32.92;24.41;98194.53;5015560;28;20034;-79
2022/10/25 07:06:28;;;;;;;2.42;0.98;;;;;;;32.99;24.56;98205.53;5015956;28;20384;-79
2022/10/25 07:08:58;;;;;;;1.23;1.10;;;;;;;32.75;24.72;98197.09;5013564;28;20034;-79
2022/10/25 07:11:25;;;;;;;1.77;1.38;;;;;;;32.44;25.27;98202.47;5015703;28;20036;-79
2022/10/25 07:13:52;;;;;;;1.65;1.08;;;;;;;32.28;25.23;98206.56;5015126;28;20092;-79
2022/10/25 07:16:19;;;;;;;1.10;1.02;;;;;;;32.46;25.15;98214.13;5015332;28;20030;-79
2022/10/25 07:18:46;;;;;;;2.80;1.10;;;;;;;32.64;25.05;98219.66;5008204;28;20064;-79
2022/10/25 07:21:17;;;;;;;1.30;0.90;;;;;;;32.55;25.17;98219.75;5014876;28;20050;-79
2022/10/25 07:23:44;;;;;;;2.67;1.10;;;;;;;32.50;25.77;98217.59;5015155;28;20483;-79
2022/10/25 07:26:21;;;;;;;0.80;0.80;;;;;;;32.38;25.76;98216.56;5014984;28;20033;-79
2022/10/25 07:28:49;;;;;;;1.15;0.95;;;;;;;32.14;26.61;98193.09;5015035;28;20064;-79
2022/10/25 07:31:18;;;;;;;1.70;1.15;;;;;;;31.43;27.69;98201.66;5015028;28;20072;-79
2022/10/25 07:33:44;;;;;;;1.00;0.90;;;;;;;31.00;28.95;98196.44;5014694;28;20125;-79
2022/10/25 07:36:10;;;;;;;1.02;0.85;;;;;;;31.18;29.00;98193.56;5014029;28;20069;-79
2022/10/25 07:38:37;;;;;;;1.10;1.00;;;;;;;30.90;29.01;98190.03;5015006;28;20037;-79
2022/10/25 07:41:04;;;;;;;3.05;1.40;;;;;;;31.71;27.37;98190.91;5013559;28;20408;-79
2022/10/25 07:43:30;;;;;;;1.40;1.30;;;;;;;32.26;27.00;98194.88;5015002;28;20030;-79
2022/10/25 07:45:56;;;;;;;2.55;1.33;;;;;;;32.98;27.02;98190.50;5008560;28;20579;-79
2022/10/25 07:48:23;;;;;;;4.15;1.75;;;;;;;33.35;25.74;98190.88;5000800;28;20038;-79
2022/10/25 07:50:49;;;;;;;1.30;1.20;;;;;;;33.70;26.11;98182.34;5013228;28;20113;-79
2022/10/25 07:53:15;;;;;;;2.70;1.20;;;;;;;33.87;25.34;98181.25;5008031;28;20026;-79
2022/10/25 07:55:41;;;;;;;1.20;1.10;;;;;;;33.67;25.53;98169.06;5014550;28;20117;-79
2022/10/25 07:58:10;;;;;;;1.15;1.05;;;;;;;33.82;25.17;98170.56;5014110;28;20426;-80
2022/10/25 08:00:36;;;;;;;1.30;1.17;;;;;;;33.37;25.90;98169.16;5014373;28;20038;-79
2022/10/25 08:03:03;;;;;;;2.83;0.93;;;;;;;32.47;27.07;98173.84;5014483;28;20037;-79
2022/10/25 08:05:29;;;;;;;1.30;0.82;;;;;;;31.34;29.27;98161.94;5014079;28;20067;-79
2022/10/25 08:07:55;;;;;;;0.95;0.95;;;;;;;31.18;29.14;98171.63;5014451;28;20034;-79
2022/10/25 08:10:21;;;;;;;1.75;0.90;;;;;;;30.94;28.70;98172.84;5007874;28;20034;-79
2022/10/25 08:12:49;;;;;;;1.02;0.93;;;;;;;30.95;28.46;98161.00;5014183;28;20034;-79
2022/10/25 08:15:16;;;;;;;1.25;1.15;;;;;;;30.80;29.61;98160.13;5014156;28;20045;-79
2022/10/25 08:17:42;;;;;;;1.70;1.00;;;;;;;30.92;29.42;98161.19;5014242;28;20029;-79
2022/10/25 08:20:08;;;;;;;2.67;1.30;;;;;;;31.83;27.96;98142.38;5013883;28;20088;-79
2022/10/25 08:22:35;;;;;;;0.95;0.90;;;;;;;32.32;27.28;98152.38;5013301;28;20068;-79
2022/10/25 08:25:03;;;;;;;1.30;1.10;;;;;;;32.12;27.63;98155.06;5013850;28;20038;-79
2022/10/25 08:27:30;;;;;;;2.80;0.93;;;;;;;32.61;27.28;98149.56;5007119;28;20022;-79
2022/10/25 08:29:57;;;;;;;0.77;0.77;;;;;;;32.71;26.72;98145.34;5013910;28;20057;-79
2022/10/25 08:32:24;;;;;;;0.80;0.80;;;;;;;32.58;26.68;98139.19;5013658;28;20029;-79
2022/10/25 08:34:50;;;;;;;1.15;0.98;;;;;;;32.72;25.90;98139.16;5013805;28;20510;-79
2022/10/25 08:37:16;;;;;;;0.80;0.70;;;;;;;33.02;25.87;98147.69;5013788;28;20503;-79
2022/10/25 08:39:43;;;;;;;0.80;0.80;;;;;;;32.52;27.23;98135.44;5014016;28;20061;-79
2022/10/25 08:42:19;;;;;;;1.35;0.80;;;;;;;32.23;27.41;98147.53;5013883;28;20018;-79
2022/10/25 08:45:25;;;;;;;0.88;0.80;;;;;;;32.19;28.23;98151.84;5009498;28;20045;-79
2022/10/25 08:47:53;;;;;;;1.20;0.90;;;;;;;31.48;28.15;98160.47;5001228;28;20038;-79
2022/10/25 08:50:26;;;;;;;3.08;0.80;;;;;;;31.16;29.21;98167.69;5013526;28;20041;-79
2022/10/25 08:52:57;;;;;;;0.90;0.90;;;;;;;30.35;30.64;98174.41;5013661;28;20064;-79
2022/10/25 08:55:36;;;;;;;2.17;1.23;;;;;;;29.79;29.95;98178.50;5013579;28;20053;-79
2022/10/25 08:58:09;;;;;;;1.02;0.80;;;;;;;30.40;29.75;98180.22;5013411;28;20026;-80
2022/10/25 09:00:39;;;;;;;1.52;0.90;;;;;;;31.48;28.69;98189.63;5006304;28;20033;-79
2022/10/25 09:03:15;;;;;;;1.15;1.00;;;;;;;30.28;31.16;98188.84;5013496;28;20061;-79
2022/10/25 09:06:01;;;;;;;1.48;1.00;;;;;;;30.36;31.78;98190.94;5013652;28;20084;-79
2022/10/25 09:08:56;;;;;;;1.58;1.42;;;;;;;30.36;30.72;98181.66;5013039;28;20034;-79
2022/10/25 09:11:50;;;;;;;1.75;1.00;;;;;;;30.42;29.44;98197.53;5013566;28;20034;-79
2022/10/25 09:14:41;;;;;;;1.20;1.00;;;;;;;30.20;30.89;98193.28;5013175;28;20038;-79
2022/10/25 09:17:10;;;;;;;1.58;1.20;;;;;;;28.82;32.57;98204.72;5012264;28;20383;-79
2022/10/25 09:19:48;;;;;;;1.10;0.90;;;;;;;29.95;30.99;98206.50;5010366;28;20037;-79
2022/10/25 09:22:25;;;;;;;1.42;1.00;;;;;;;30.13;31.52;98202.88;4993386;28;20046;-79
2022/10/25 09:25:02;;;;;;;1.30;1.20;;;;;;;30.19;31.52;98203.81;4993610;28;20041;-80
2022/10/25 09:27:38;;;;;;;2.15;1.85;;;;;;;28.88;36.68;98219.81;4993564;28;20031;-79
2022/10/25 09:30:11;;;;;;;2.90;2.47;;;;;;;28.38;36.35;98214.47;4993256;28;20038;-79
2022/10/25 09:32:41;;;;;;;3.45;2.10;;;;;;;28.44;34.38;98193.66;4994836;28;20109;-80
2022/10/25 09:35:19;;;;;;;2.95;1.90;;;;;;;27.99;34.09;98213.06;5012264;28;20034;-79
2022/10/25 09:37:50;;;;;;;3.80;2.42;;;;;;;27.58;37.83;98213.28;5017060;28;20484;-79
2022/10/25 09:40:34;;;;;;;3.75;2.28;;;;;;;28.16;34.19;98216.50;5017123;28;20030;-79
2022/10/25 09:43:16;;;;;;;3.65;2.08;;;;;;;28.62;34.12;98218.41;5017111;28;20022;-79
2022/10/25 09:46:02;;;;;;;3.15;2.17;;;;;;;27.60;37.29;98225.69;5016761;28;20488;-79
2022/10/25 09:48:56;;;;;;;3.25;2.30;;;;;;;27.52;37.04;98229.97;5017203;28;20109;-79
2022/10/25 09:51:59;;;;;;;4.75;2.33;;;;;;;27.54;34.70;98235.19;5010770;28;20027;-79
2022/10/25 09:54:36;;;;;;;2.28;2.03;;;;;;;26.46;38.15;98230.47;5016440;28;20041;-79
2022/10/25 09:57:03;;;;;;;4.07;2.35;;;;;;;26.04;38.77;98223.97;5016642;28;20030;-79
2022/10/25 09:59:29;;;;;;;3.70;1.90;;;;;;;26.14;40.25;98224.94;5016522;28;20550;-79
2022/10/25 10:01:55;;;;;;;4.15;1.83;;;;;;;27.17;34.46;98228.28;5016776;28;20076;-79
2022/10/25 10:04:35;;;;;;;2.88;1.77;;;;;;;26.60;36.08;98238.50;5016603;28;20037;-79
2022/10/25 10:07:07;;;;;;;1.77;1.50;;;;;;;26.54;35.57;98237.44;5016570;28;20034;-79
2022/10/25 10:09:36;;;;;;;2.60;1.50;;;;;;;27.95;32.65;98232.94;5009417;28;20030;-80
2022/10/25 10:12:05;;;;;;;1.95;1.35;;;;;;;26.78;35.61;98235.16;5016428;28;20125;-80
2022/10/25 10:14:57;;;;;;;2.08;1.30;;;;;;;26.64;35.84;98241.97;5016603;28;20034;-79
2022/10/25 10:17:26;;;;;;;2.33;1.63;;;;;;;26.77;35.47;98238.44;5011776;28;20092;-79
2022/10/25 10:20:14;;;;;;;1.50;1.40;;;;;;;28.26;33.65;98232.28;5011682;28;20476;-79
2022/10/25 10:22:50;;;;;;;1.42;1.30;;;;;;;28.47;31.82;98240.72;4996466;28;20411;-79
2022/10/25 10:25:27;;;;;;;1.75;1.38;;;;;;;27.78;35.53;98239.97;5004390;28;20492;-79
2022/10/25 10:27:56;;;;;;;1.73;1.15;;;;;;;28.38;31.95;98232.19;5015920;28;20057;-80
2022/10/25 10:30:28;;;;;;;1.52;1.33;;;;;;;28.30;31.71;98235.75;5014939;28;20026;-79
2022/10/25 10:33:01;;;;;;;2.88;1.25;;;;;;;28.85;31.71;98243.34;5016058;28;20073;-79
2022/10/25 10:35:31;;;;;;;4.25;1.10;;;;;;;28.59;31.37;98233.47;5016052;28;20037;-79
2022/10/25 10:38:24;;;;;;;3.77;1.20;;;;;;;29.12;30.90;98245.53;5016355;28;20029;-79
2022/10/25 10:41:10;;;;;;;1.02;0.93;;;;;;;29.13;31.84;98247.09;5012002;28;20125;-79
2022/10/25 10:43:36;;;;;;;1.45;1.00;;;;;;;29.76;30.85;98235.25;5009214;28;20478;-79
2022/10/25 10:46:14;;;;;;;1.15;1.05;;;;;;;29.89;29.41;98235.91;5015514;28;20483;-79
2022/10/25 10:48:51;;;;;;;1.05;0.93;;;;;;;30.49;29.15;98236.09;5015861;28;20117;-79
2022/10/25 10:51:21;;;;;;;0.93;0.85;;;;;;;30.18;28.73;98226.97;5014526;28;20427;-79
2022/10/25 10:53:47;;;;;;;1.07;0.67;;;;;;;30.35;28.48;98231.06;5015612;28;20060;-79
2022/10/25 10:56:22;;;;;;;3.17;0.80;;;;;;;31.35;27.31;98225.91;5015569;28;20033;-79
2022/10/25 10:58:49;;;;;;;0.98;0.73;;;;;;;31.67;27.08;98222.28;5013603;28;20022;-79
2022/10/25 11:01:32;;;;;;;0.77;0.60;;;;;;;31.20;27.36;98230.72;5015697;28;20034;-79
2022/10/25 11:03:59;;;;;;;1.27;0.70;;;;;;;31.50;26.65;98228.88;5015478;28;20464;-79
2022/10/25 11:06:27;;;;;;;2.17;0.50;;;;;;;31.99;26.10;98230.00;5015271;28;20022;-79
2022/10/25 11:09:22;;;;;;;1.77;0.57;;;;;;;32.14;25.95;98232.13;5015463;28;20042;-79
2022/10/25 11:12:11;;;;;;;0.80;0.73;;;;;;;31.61;27.60;98243.31;5015349;28;20113;-79
2022/10/25 11:14:37;;;;;;;0.50;0.50;;;;;;;31.60;27.29;98231.16;5015126;28;20033;-79
2022/10/25 11:17:36;;;;;;;1.00;0.85;;;;;;;31.63;27.27;98235.88;5014597;28;20076;-79
2022/10/25 11:20:20;;;;;;;0.50;0.30;;;;;;;31.73;26.85;98228.09;5013066;28;20046;-79
2022/10/25 11:22:57;;;;;;;0.55;0.55;;;;;;;31.54;27.98;98240.84;5014962;28;20484;-79
2022/10/25 11:25:31;;;;;;;0.70;0.60;;;;;;;31.59;27.70;98232.44;5014860;28;20042;-79
2022/10/25 11:28:28;;;;;;;0.70;0.57;;;;;;;31.15;27.66;98234.22;5014923;28;20117;-80
2022/10/25 11:31:30;;;;;;;0.70;0.60;;;;;;;30.96;28.72;98232.72;5009447;28;20042;-79
2022/10/25 11:34:07;;;;;;;1.27;0.63;;;;;;;31.24;27.61;98240.66;5008386;28;20200;-79
2022/10/25 11:36:47;;;;;;;1.17;0.80;;;;;;;32.04;26.19;98235.00;5015027;28;20033;-79
2022/10/25 11:39:22;;;;;;;1.45;0.60;;;;;;;32.40;25.85;98233.13;5013556;28;20109;-79
2022/10/25 11:41:57;;;;;;;0.60;0.60;;;;;;;32.48;25.20;98226.59;5014928;28;20040;-79
2022/10/25 11:44:23;;;;;;;0.70;0.60;;;;;;;31.93;28.39;98231.09;5014384;28;20049;-79
2022/10/25 11:47:17;;;;;;;1.20;0.50;;;;;;;32.65;25.96;98227.69;5010311;28;20046;-79
2022/10/25 11:50:02;;;;;;;1.30;0.60;;;;;;;33.06;25.31;98225.88;4994678;28;20057;-79
2022/10/25 11:52:55;;;;;;;1.02;0.50;;;;;;;33.07;25.24;98226.66;5014665;28;20414;-79